sensor_id;sensor_type;location;lat;lon;timestamp;temperature;humidity
33715;DHT22;20043;50.998;4.754;2022-10-31T00:00:19;15.50;99.90
33715;DHT22;20043;50.998;4.754;2022-10-31T00:02:44;15.50;99.90
33715;DHT22;20043;50.998;4.754;2022-10-31T00:05:10;15.60;99.90
33715;DHT22;20043;50.998;4.754;2022-10-31T00:07:36;15.60;99.90
33715;DHT22;20043;50.998;4.754;2022-10-31T00:10:01;15.60;99.90
33715;DHT22;20043;50.998;4.754;2022-10-31T00:12:27;15.60;99.90
33715;DHT22;20043;50.998;4.754;2022-10-31T00:14:52;15.60;99.90
33715;DHT22;20043;50.998;4.754;2022-10-31T00:17:18;15.60;99.90
33715;DHT22;20043;50.998;4.754;2022-10-31T00:19:44;15.50;99.90
33715;DHT22;20043;50.998;4.754;2022-10-31T00:22:09;15.50;99.90
33715;DHT22;20043;50.998;4.754;2022-10-31T00:24:35;15.40;99.90
33715;DHT22;20043;50.998;4.754;2022-10-31T00:27:00;15.40;99.90
33715;DHT22;20043;50.998;4.754;2022-10-31T00:29:26;15.40;99.90
33715;DHT22;20043;50.998;4.754;2022-10-31T00:31:52;15.40;99.90
33715;DHT22;20043;50.998;4.754;2022-10-31T00:34:17;15.40;99.90
33715;DHT22;20043;50.998;4.754;2022-10-31T00:36:43;15.30;99.90
33715;DHT22;20043;50.998;4.754;2022-10-31T00:39:09;15.30;99.90
33715;DHT22;20043;50.998;4.754;2022-10-31T00:41:34;15.30;99.90
33715;DHT22;20043;50.998;4.754;2022-10-31T00:44:00;15.30;99.90
33715;DHT22;20043;50.998;4.754;2022-10-31T00:46:25;15.20;99.90
33715;DHT22;20043;50.998;4.754;2022-10-31T00:48:51;15.30;99.90
33715;DHT22;20043;50.998;4.754;2022-10-31T00:51:17;15.20;99.90
33715;DHT22;20043;50.998;4.754;2022-10-31T00:53:42;15.30;99.90
33715;DHT22;20043;50.998;4.754;2022-10-31T00:56:08;15.30;99.90
33715;DHT22;20043;50.998;4.754;2022-10-31T00:58:34;15.30;99.90
33715;DHT22;20043;50.998;4.754;2022-10-31T01:00:59;15.20;99.90
33715;DHT22;20043;50.998;4.754;2022-10-31T01:03:28;15.20;99.90
33715;DHT22;20043;50.998;4.754;2022-10-31T01:06:11;15.10;99.90
33715;DHT22;20043;50.998;4.754;2022-10-31T01:08:38;15.00;99.90
33715;DHT22;20043;50.998;4.754;2022-10-31T01:13:40;15.10;99.90
33715;DHT22;20043;50.998;4.754;2022-10-31T01:16:08;15.00;99.90
33715;DHT22;20043;50.998;4.754;2022-10-31T01:18:35;14.90;99.90
33715;DHT22;20043;50.998;4.754;2022-10-31T01:21:09;14.90;99.90
33715;DHT22;20043;50.998;4.754;2022-10-31T01:23:35;14.90;99.90
33715;DHT22;20043;50.998;4.754;2022-10-31T01:26:07;14.90;99.90
33715;DHT22;20043;50.998;4.754;2022-10-31T01:28:34;14.70;99.90
33715;DHT22;20043;50.998;4.754;2022-10-31T01:31:01;14.60;99.90
33715;DHT22;20043;50.998;4.754;2022-10-31T01:33:27;14.60;99.90
33715;DHT22;20043;50.998;4.754;2022-10-31T01:35:53;14.60;99.90
33715;DHT22;20043;50.998;4.754;2022-10-31T01:38:18;14.50;99.90
33715;DHT22;20043;50.998;4.754;2022-10-31T01:40:44;14.50;99.90
33715;DHT22;20043;50.998;4.754;2022-10-31T01:43:13;14.40;99.90
33715;DHT22;20043;50.998;4.754;2022-10-31T01:45:39;14.40;99.90
33715;DHT22;20043;50.998;4.754;2022-10-31T01:48:06;14.40;99.90
33715;DHT22;20043;50.998;4.754;2022-10-31T01:50:38;14.40;99.90
33715;DHT22;20043;50.998;4.754;2022-10-31T01:53:06;14.40;99.90
33715;DHT22;20043;50.998;4.754;2022-10-31T01:55:39;14.40;99.90
33715;DHT22;20043;50.998;4.754;2022-10-31T01:58:11;14.40;99.90
33715;DHT22;20043;50.998;4.754;2022-10-31T02:00:40;14.30;99.90
33715;DHT22;20043;50.998;4.754;2022-10-31T02:03:07;14.20;99.90
33715;DHT22;20043;50.998;4.754;2022-10-31T02:05:34;14.00;99.90
33715;DHT22;20043;50.998;4.754;2022-10-31T02:08:20;14.10;99.90
33715;DHT22;20043;50.998;4.754;2022-10-31T02:10:47;14.00;99.90
33715;DHT22;20043;50.998;4.754;2022-10-31T02:13:13;14.00;99.90
33715;DHT22;20043;50.998;4.754;2022-10-31T02:15:40;14.10;99.90
33715;DHT22;20043;50.998;4.754;2022-10-31T02:18:07;14.10;99.90
33715;DHT22;20043;50.998;4.754;2022-10-31T02:20:39;14.10;99.90
33715;DHT22;20043;50.998;4.754;2022-10-31T02:26:28;14.00;99.90
33715;DHT22;20043;50.998;4.754;2022-10-31T02:32:15;14.00;99.90
33715;DHT22;20043;50.998;4.754;2022-10-31T02:37:53;13.90;99.90
33715;DHT22;20043;50.998;4.754;2022-10-31T02:44:00;13.70;99.90
33715;DHT22;20043;50.998;4.754;2022-10-31T02:49:05;13.70;99.90
33715;DHT22;20043;50.998;4.754;2022-10-31T02:51:32;13.70;99.90
33715;DHT22;20043;50.998;4.754;2022-10-31T02:53:58;13.60;99.90
33715;DHT22;20043;50.998;4.754;2022-10-31T02:56:23;13.60;99.90
33715;DHT22;20043;50.998;4.754;2022-10-31T02:58:55;13.60;99.90
33715;DHT22;20043;50.998;4.754;2022-10-31T03:01:38;13.60;99.90
33715;DHT22;20043;50.998;4.754;2022-10-31T03:06:49;13.70;99.90
33715;DHT22;20043;50.998;4.754;2022-10-31T03:12:17;13.60;99.90
33715;DHT22;20043;50.998;4.754;2022-10-31T03:15:00;13.70;99.90
33715;DHT22;20043;50.998;4.754;2022-10-31T03:17:36;13.70;99.90
33715;DHT22;20043;50.998;4.754;2022-10-31T03:20:04;13.70;99.90
33715;DHT22;20043;50.998;4.754;2022-10-31T03:22:32;13.80;99.90
33715;DHT22;20043;50.998;4.754;2022-10-31T03:25:01;13.60;99.90
33715;DHT22;20043;50.998;4.754;2022-10-31T03:27:31;13.60;99.90
33715;DHT22;20043;50.998;4.754;2022-10-31T03:30:02;13.50;99.90
33715;DHT22;20043;50.998;4.754;2022-10-31T03:32:43;13.50;99.90
33715;DHT22;20043;50.998;4.754;2022-10-31T03:35:11;13.40;99.90
33715;DHT22;20043;50.998;4.754;2022-10-31T03:37:39;13.40;99.90
33715;DHT22;20043;50.998;4.754;2022-10-31T03:40:07;13.40;99.90
33715;DHT22;20043;50.998;4.754;2022-10-31T03:42:38;13.30;99.90
33715;DHT22;20043;50.998;4.754;2022-10-31T03:45:25;13.30;99.90
33715;DHT22;20043;50.998;4.754;2022-10-31T03:47:52;13.30;99.90
33715;DHT22;20043;50.998;4.754;2022-10-31T03:50:20;13.30;99.90
33715;DHT22;20043;50.998;4.754;2022-10-31T03:52:49;13.30;99.90
33715;DHT22;20043;50.998;4.754;2022-10-31T03:55:25;13.30;99.90
33715;DHT22;20043;50.998;4.754;2022-10-31T03:58:32;13.40;99.90
33715;DHT22;20043;50.998;4.754;2022-10-31T04:00:51;13.40;99.90
33715;DHT22;20043;50.998;4.754;2022-10-31T04:03:21;13.30;99.90
33715;DHT22;20043;50.998;4.754;2022-10-31T04:05:49;13.30;99.90
33715;DHT22;20043;50.998;4.754;2022-10-31T04:08:21;13.30;99.90
33715;DHT22;20043;50.998;4.754;2022-10-31T04:10:49;13.30;99.90
33715;DHT22;20043;50.998;4.754;2022-10-31T04:13:19;13.20;99.90
33715;DHT22;20043;50.998;4.754;2022-10-31T04:15:46;13.20;99.90
33715;DHT22;20043;50.998;4.754;2022-10-31T04:18:12;13.30;99.90
33715;DHT22;20043;50.998;4.754;2022-10-31T04:20:40;13.30;99.90
33715;DHT22;20043;50.998;4.754;2022-10-31T04:23:23;13.40;99.90
33715;DHT22;20043;50.998;4.754;2022-10-31T04:25:49;13.40;99.90
33715;DHT22;20043;50.998;4.754;2022-10-31T04:28:15;13.40;99.90
33715;DHT22;20043;50.998;4.754;2022-10-31T04:30:40;13.40;99.90
33715;DHT22;20043;50.998;4.754;2022-10-31T04:33:06;13.30;99.90
33715;DHT22;20043;50.998;4.754;2022-10-31T04:35:31;13.30;99.90
33715;DHT22;20043;50.998;4.754;2022-10-31T04:37:57;13.20;99.90
33715;DHT22;20043;50.998;4.754;2022-10-31T04:40:22;13.10;99.90
33715;DHT22;20043;50.998;4.754;2022-10-31T04:42:48;13.10;99.90
33715;DHT22;20043;50.998;4.754;2022-10-31T04:45:14;13.10;99.90
33715;DHT22;20043;50.998;4.754;2022-10-31T04:47:39;13.10;99.90
33715;DHT22;20043;50.998;4.754;2022-10-31T04:50:05;13.10;99.90
33715;DHT22;20043;50.998;4.754;2022-10-31T04:52:31;13.00;99.90
33715;DHT22;20043;50.998;4.754;2022-10-31T04:54:56;13.00;99.90
33715;DHT22;20043;50.998;4.754;2022-10-31T04:57:22;13.00;99.90
33715;DHT22;20043;50.998;4.754;2022-10-31T04:59:47;13.00;99.90
33715;DHT22;20043;50.998;4.754;2022-10-31T05:02:13;13.00;99.90
33715;DHT22;20043;50.998;4.754;2022-10-31T05:04:39;13.10;99.90
33715;DHT22;20043;50.998;4.754;2022-10-31T05:07:04;13.10;99.90
33715;DHT22;20043;50.998;4.754;2022-10-31T05:09:30;13.10;99.90
33715;DHT22;20043;50.998;4.754;2022-10-31T05:11:55;13.20;99.90
33715;DHT22;20043;50.998;4.754;2022-10-31T05:14:21;13.30;99.90
33715;DHT22;20043;50.998;4.754;2022-10-31T05:16:46;13.20;99.90
33715;DHT22;20043;50.998;4.754;2022-10-31T05:19:12;13.30;99.90
33715;DHT22;20043;50.998;4.754;2022-10-31T05:21:37;13.30;99.90
33715;DHT22;20043;50.998;4.754;2022-10-31T05:24:03;13.30;99.90
33715;DHT22;20043;50.998;4.754;2022-10-31T05:26:29;13.30;99.90
33715;DHT22;20043;50.998;4.754;2022-10-31T05:28:54;13.30;99.90
33715;DHT22;20043;50.998;4.754;2022-10-31T05:31:20;13.30;99.90
33715;DHT22;20043;50.998;4.754;2022-10-31T05:33:45;13.40;99.90
33715;DHT22;20043;50.998;4.754;2022-10-31T05:36:11;13.40;99.90
33715;DHT22;20043;50.998;4.754;2022-10-31T05:38:37;13.40;99.90
33715;DHT22;20043;50.998;4.754;2022-10-31T05:41:02;13.50;99.90
33715;DHT22;20043;50.998;4.754;2022-10-31T05:43:28;13.50;99.90
33715;DHT22;20043;50.998;4.754;2022-10-31T05:45:55;13.50;99.90
33715;DHT22;20043;50.998;4.754;2022-10-31T05:48:21;13.60;99.90
33715;DHT22;20043;50.998;4.754;2022-10-31T05:50:47;13.60;99.90
33715;DHT22;20043;50.998;4.754;2022-10-31T05:53:13;13.60;99.90
33715;DHT22;20043;50.998;4.754;2022-10-31T05:55:39;13.60;99.90
33715;DHT22;20043;50.998;4.754;2022-10-31T05:58:06;13.70;99.90
33715;DHT22;20043;50.998;4.754;2022-10-31T06:00:32;13.70;99.90
33715;DHT22;20043;50.998;4.754;2022-10-31T06:03:02;13.60;99.90
33715;DHT22;20043;50.998;4.754;2022-10-31T06:05:29;13.70;99.90
33715;DHT22;20043;50.998;4.754;2022-10-31T06:07:56;13.70;99.90
33715;DHT22;20043;50.998;4.754;2022-10-31T06:10:21;13.60;99.90
33715;DHT22;20043;50.998;4.754;2022-10-31T06:12:47;13.50;99.90
33715;DHT22;20043;50.998;4.754;2022-10-31T06:15:13;13.60;99.90
33715;DHT22;20043;50.998;4.754;2022-10-31T06:17:39;13.60;99.90
33715;DHT22;20043;50.998;4.754;2022-10-31T06:20:05;13.60;99.90
33715;DHT22;20043;50.998;4.754;2022-10-31T06:22:31;13.60;99.90
33715;DHT22;20043;50.998;4.754;2022-10-31T06:24:57;13.70;99.90
33715;DHT22;20043;50.998;4.754;2022-10-31T06:27:23;13.70;99.90
33715;DHT22;20043;50.998;4.754;2022-10-31T06:29:48;13.60;99.90
33715;DHT22;20043;50.998;4.754;2022-10-31T06:32:15;13.70;99.90
33715;DHT22;20043;50.998;4.754;2022-10-31T06:34:41;13.80;99.90
33715;DHT22;20043;50.998;4.754;2022-10-31T06:37:07;13.80;99.90
33715;DHT22;20043;50.998;4.754;2022-10-31T06:39:33;13.80;99.90
33715;DHT22;20043;50.998;4.754;2022-10-31T06:41:59;13.90;99.90
33715;DHT22;20043;50.998;4.754;2022-10-31T06:44:25;14.00;99.90
33715;DHT22;20043;50.998;4.754;2022-10-31T06:46:50;13.90;99.90
33715;DHT22;20043;50.998;4.754;2022-10-31T06:49:16;14.00;99.90
33715;DHT22;20043;50.998;4.754;2022-10-31T06:51:42;14.00;99.90
33715;DHT22;20043;50.998;4.754;2022-10-31T06:54:08;14.00;99.90
33715;DHT22;20043;50.998;4.754;2022-10-31T06:56:33;14.10;99.90
33715;DHT22;20043;50.998;4.754;2022-10-31T06:58:59;14.10;99.90
33715;DHT22;20043;50.998;4.754;2022-10-31T07:01:24;14.10;99.90
33715;DHT22;20043;50.998;4.754;2022-10-31T07:03:50;14.10;99.90
33715;DHT22;20043;50.998;4.754;2022-10-31T07:06:16;14.10;99.90
33715;DHT22;20043;50.998;4.754;2022-10-31T07:08:41;14.10;99.90
33715;DHT22;20043;50.998;4.754;2022-10-31T07:11:07;14.20;99.90
33715;DHT22;20043;50.998;4.754;2022-10-31T07:13:32;14.30;99.90
33715;DHT22;20043;50.998;4.754;2022-10-31T07:16:03;14.30;99.90
33715;DHT22;20043;50.998;4.754;2022-10-31T07:18:30;14.30;99.90
33715;DHT22;20043;50.998;4.754;2022-10-31T07:20:55;14.30;99.90
33715;DHT22;20043;50.998;4.754;2022-10-31T07:23:21;14.40;99.90
33715;DHT22;20043;50.998;4.754;2022-10-31T07:25:47;14.40;99.90
33715;DHT22;20043;50.998;4.754;2022-10-31T07:28:13;14.30;99.90
33715;DHT22;20043;50.998;4.754;2022-10-31T07:30:39;14.20;99.90
33715;DHT22;20043;50.998;4.754;2022-10-31T07:33:05;14.30;99.90
33715;DHT22;20043;50.998;4.754;2022-10-31T07:35:31;14.50;99.90
33715;DHT22;20043;50.998;4.754;2022-10-31T07:37:57;14.60;99.90
33715;DHT22;20043;50.998;4.754;2022-10-31T07:40:31;14.50;99.90
33715;DHT22;20043;50.998;4.754;2022-10-31T07:42:57;14.40;99.90
33715;DHT22;20043;50.998;4.754;2022-10-31T07:45:23;14.40;99.90
33715;DHT22;20043;50.998;4.754;2022-10-31T07:47:51;14.50;99.90
33715;DHT22;20043;50.998;4.754;2022-10-31T07:50:22;14.50;99.90
33715;DHT22;20043;50.998;4.754;2022-10-31T07:52:48;14.40;99.90
33715;DHT22;20043;50.998;4.754;2022-10-31T07:55:14;14.30;99.90
33715;DHT22;20043;50.998;4.754;2022-10-31T07:57:40;14.50;99.90
33715;DHT22;20043;50.998;4.754;2022-10-31T08:00:08;14.80;99.90
33715;DHT22;20043;50.998;4.754;2022-10-31T08:02:34;14.80;99.90
33715;DHT22;20043;50.998;4.754;2022-10-31T08:05:00;14.70;99.90
33715;DHT22;20043;50.998;4.754;2022-10-31T08:07:28;14.70;99.90
33715;DHT22;20043;50.998;4.754;2022-10-31T08:09:54;14.60;99.90
33715;DHT22;20043;50.998;4.754;2022-10-31T08:12:20;14.70;99.90
33715;DHT22;20043;50.998;4.754;2022-10-31T08:14:45;14.90;99.90
33715;DHT22;20043;50.998;4.754;2022-10-31T08:17:11;15.00;99.90
33715;DHT22;20043;50.998;4.754;2022-10-31T08:19:37;14.80;99.90
33715;DHT22;20043;50.998;4.754;2022-10-31T08:22:02;14.90;99.90
33715;DHT22;20043;50.998;4.754;2022-10-31T08:24:28;14.90;99.90
33715;DHT22;20043;50.998;4.754;2022-10-31T08:26:53;15.00;99.90
33715;DHT22;20043;50.998;4.754;2022-10-31T08:29:19;15.20;99.90
33715;DHT22;20043;50.998;4.754;2022-10-31T08:31:45;15.20;99.90
33715;DHT22;20043;50.998;4.754;2022-10-31T08:34:10;15.20;99.90
33715;DHT22;20043;50.998;4.754;2022-10-31T08:36:36;15.20;99.90
33715;DHT22;20043;50.998;4.754;2022-10-31T08:39:02;15.30;99.90
33715;DHT22;20043;50.998;4.754;2022-10-31T08:41:28;15.50;99.90
33715;DHT22;20043;50.998;4.754;2022-10-31T08:43:53;15.60;99.90
33715;DHT22;20043;50.998;4.754;2022-10-31T08:46:19;15.70;99.90
33715;DHT22;20043;50.998;4.754;2022-10-31T08:48:47;15.70;99.90
33715;DHT22;20043;50.998;4.754;2022-10-31T08:51:13;15.70;99.90
33715;DHT22;20043;50.998;4.754;2022-10-31T08:53:38;15.50;99.90
33715;DHT22;20043;50.998;4.754;2022-10-31T08:56:04;15.60;99.90
33715;DHT22;20043;50.998;4.754;2022-10-31T08:58:30;15.80;99.90
33715;DHT22;20043;50.998;4.754;2022-10-31T09:00:55;15.80;99.90
33715;DHT22;20043;50.998;4.754;2022-10-31T09:03:26;15.80;99.90
33715;DHT22;20043;50.998;4.754;2022-10-31T09:05:56;15.90;99.90
33715;DHT22;20043;50.998;4.754;2022-10-31T09:08:22;15.80;99.90
33715;DHT22;20043;50.998;4.754;2022-10-31T09:10:48;15.80;99.90
33715;DHT22;20043;50.998;4.754;2022-10-31T09:13:19;15.90;99.90
33715;DHT22;20043;50.998;4.754;2022-10-31T09:15:46;15.90;99.90
33715;DHT22;20043;50.998;4.754;2022-10-31T09:18:13;16.00;99.90
33715;DHT22;20043;50.998;4.754;2022-10-31T09:20:41;15.70;99.90
33715;DHT22;20043;50.998;4.754;2022-10-31T09:23:13;15.50;99.90
33715;DHT22;20043;50.998;4.754;2022-10-31T09:25:40;15.50;99.90
33715;DHT22;20043;50.998;4.754;2022-10-31T09:28:08;15.50;99.90
33715;DHT22;20043;50.998;4.754;2022-10-31T09:30:35;15.50;99.90
33715;DHT22;20043;50.998;4.754;2022-10-31T09:33:03;15.70;99.90
33715;DHT22;20043;50.998;4.754;2022-10-31T09:35:29;15.90;99.90
33715;DHT22;20043;50.998;4.754;2022-10-31T09:38:00;15.90;99.90
33715;DHT22;20043;50.998;4.754;2022-10-31T09:51:50;16.20;99.90
33715;DHT22;20043;50.998;4.754;2022-10-31T09:54:45;16.40;99.90
33715;DHT22;20043;50.998;4.754;2022-10-31T09:57:14;16.40;99.90
33715;DHT22;20043;50.998;4.754;2022-10-31T09:59:42;16.60;99.90
33715;DHT22;20043;50.998;4.754;2022-10-31T10:02:56;16.70;99.90
33715;DHT22;20043;50.998;4.754;2022-10-31T10:05:49;16.70;99.90
33715;DHT22;20043;50.998;4.754;2022-10-31T10:08:25;16.60;99.90
33715;DHT22;20043;50.998;4.754;2022-10-31T10:11:01;16.60;99.90
33715;DHT22;20043;50.998;4.754;2022-10-31T10:19:20;16.40;99.90
33715;DHT22;20043;50.998;4.754;2022-10-31T10:21:57;16.30;99.90
33715;DHT22;20043;50.998;4.754;2022-10-31T10:24:45;16.40;99.90
33715;DHT22;20043;50.998;4.754;2022-10-31T10:27:29;16.40;99.90
33715;DHT22;20043;50.998;4.754;2022-10-31T10:32:28;16.70;99.90
33715;DHT22;20043;50.998;4.754;2022-10-31T10:35:07;16.80;99.90
33715;DHT22;20043;50.998;4.754;2022-10-31T10:37:39;16.70;99.90
33715;DHT22;20043;50.998;4.754;2022-10-31T10:40:26;16.70;99.90
33715;DHT22;20043;50.998;4.754;2022-10-31T10:43:12;16.70;99.90
33715;DHT22;20043;50.998;4.754;2022-10-31T10:49:44;16.80;99.90
33715;DHT22;20043;50.998;4.754;2022-10-31T10:58:07;16.90;99.90
33715;DHT22;20043;50.998;4.754;2022-10-31T11:00:45;16.90;99.90
33715;DHT22;20043;50.998;4.754;2022-10-31T11:03:12;16.80;99.90
33715;DHT22;20043;50.998;4.754;2022-10-31T11:05:52;17.00;99.90
33715;DHT22;20043;50.998;4.754;2022-10-31T11:08:25;17.10;99.90
33715;DHT22;20043;50.998;4.754;2022-10-31T11:11:07;17.30;99.90
33715;DHT22;20043;50.998;4.754;2022-10-31T11:13:34;17.20;99.90
33715;DHT22;20043;50.998;4.754;2022-10-31T11:16:03;17.20;99.90
33715;DHT22;20043;50.998;4.754;2022-10-31T11:18:32;17.40;99.90
33715;DHT22;20043;50.998;4.754;2022-10-31T11:21:01;17.60;99.90
33715;DHT22;20043;50.998;4.754;2022-10-31T11:23:28;17.50;99.90
33715;DHT22;20043;50.998;4.754;2022-10-31T11:25:59;17.60;99.90
33715;DHT22;20043;50.998;4.754;2022-10-31T11:28:26;17.60;99.90
33715;DHT22;20043;50.998;4.754;2022-10-31T11:30:56;17.60;99.90
33715;DHT22;20043;50.998;4.754;2022-10-31T11:33:30;17.70;99.90
33715;DHT22;20043;50.998;4.754;2022-10-31T11:35:58;17.90;99.90
33715;DHT22;20043;50.998;4.754;2022-10-31T11:38:30;17.90;99.90
33715;DHT22;20043;50.998;4.754;2022-10-31T11:43:32;18.20;99.90
33715;DHT22;20043;50.998;4.754;2022-10-31T11:45:57;18.50;99.90
33715;DHT22;20043;50.998;4.754;2022-10-31T11:48:24;18.40;99.90
33715;DHT22;20043;50.998;4.754;2022-10-31T11:50:55;18.30;99.90
33715;DHT22;20043;50.998;4.754;2022-10-31T11:53:33;18.20;99.90
33715;DHT22;20043;50.998;4.754;2022-10-31T11:56:15;18.20;99.90
33715;DHT22;20043;50.998;4.754;2022-10-31T11:58:42;18.30;99.90
33715;DHT22;20043;50.998;4.754;2022-10-31T12:01:26;18.40;99.90
33715;DHT22;20043;50.998;4.754;2022-10-31T12:04:07;18.40;99.90
33715;DHT22;20043;50.998;4.754;2022-10-31T12:06:38;18.50;99.90
33715;DHT22;20043;50.998;4.754;2022-10-31T12:09:20;18.80;99.90
33715;DHT22;20043;50.998;4.754;2022-10-31T12:12:10;18.90;99.90
33715;DHT22;20043;50.998;4.754;2022-10-31T12:14:46;18.90;99.90
33715;DHT22;20043;50.998;4.754;2022-10-31T12:17:16;19.00;99.90
33715;DHT22;20043;50.998;4.754;2022-10-31T12:31:18;19.00;99.90
33715;DHT22;20043;50.998;4.754;2022-10-31T12:39:07;19.20;99.90
33715;DHT22;20043;50.998;4.754;2022-10-31T12:52:44;19.20;99.90
33715;DHT22;20043;50.998;4.754;2022-10-31T12:58:24;19.30;99.90
33715;DHT22;20043;50.998;4.754;2022-10-31T13:00:52;19.30;99.90
33715;DHT22;20043;50.998;4.754;2022-10-31T13:03:27;19.20;99.90
33715;DHT22;20043;50.998;4.754;2022-10-31T13:05:59;19.30;99.90
33715;DHT22;20043;50.998;4.754;2022-10-31T13:08:37;19.20;99.90
33715;DHT22;20043;50.998;4.754;2022-10-31T13:11:18;19.10;99.90
33715;DHT22;20043;50.998;4.754;2022-10-31T13:13:54;19.30;99.90
33715;DHT22;20043;50.998;4.754;2022-10-31T13:16:24;19.50;99.90
33715;DHT22;20043;50.998;4.754;2022-10-31T13:27:23;19.70;99.90
33715;DHT22;20043;50.998;4.754;2022-10-31T13:32:21;19.70;99.90
33715;DHT22;20043;50.998;4.754;2022-10-31T13:34:51;19.60;99.90
33715;DHT22;20043;50.998;4.754;2022-10-31T13:37:46;19.50;99.90
33715;DHT22;20043;50.998;4.754;2022-10-31T13:40:33;19.40;99.90
33715;DHT22;20043;50.998;4.754;2022-10-31T13:45:51;19.30;99.90
33715;DHT22;20043;50.998;4.754;2022-10-31T13:48:18;19.40;99.90
33715;DHT22;20043;50.998;4.754;2022-10-31T13:51:04;19.50;99.90
33715;DHT22;20043;50.998;4.754;2022-10-31T13:53:37;19.60;99.90
33715;DHT22;20043;50.998;4.754;2022-10-31T13:56:16;19.50;99.90
33715;DHT22;20043;50.998;4.754;2022-10-31T13:59:03;19.40;99.90
33715;DHT22;20043;50.998;4.754;2022-10-31T14:01:30;19.30;99.90
33715;DHT22;20043;50.998;4.754;2022-10-31T14:04:12;19.40;99.90
33715;DHT22;20043;50.998;4.754;2022-10-31T14:06:50;19.30;99.90
33715;DHT22;20043;50.998;4.754;2022-10-31T14:12:24;19.10;99.90
33715;DHT22;20043;50.998;4.754;2022-10-31T14:14:56;19.00;99.90
33715;DHT22;20043;50.998;4.754;2022-10-31T14:17:26;19.10;99.90
33715;DHT22;20043;50.998;4.754;2022-10-31T14:20:39;19.20;99.90
33715;DHT22;20043;50.998;4.754;2022-10-31T14:28:43;19.20;99.90
33715;DHT22;20043;50.998;4.754;2022-10-31T14:31:35;19.30;99.90
33715;DHT22;20043;50.998;4.754;2022-10-31T14:34:34;19.30;99.90
33715;DHT22;20043;50.998;4.754;2022-10-31T14:50:54;19.30;99.90
33715;DHT22;20043;50.998;4.754;2022-10-31T14:53:43;19.30;99.90
33715;DHT22;20043;50.998;4.754;2022-10-31T14:56:11;19.30;99.90
33715;DHT22;20043;50.998;4.754;2022-10-31T14:59:02;19.20;99.90
33715;DHT22;20043;50.998;4.754;2022-10-31T15:01:33;19.10;99.90
33715;DHT22;20043;50.998;4.754;2022-10-31T15:04:23;19.10;99.90
33715;DHT22;20043;50.998;4.754;2022-10-31T15:06:54;19.00;99.90
33715;DHT22;20043;50.998;4.754;2022-10-31T15:09:33;19.00;99.90
33715;DHT22;20043;50.998;4.754;2022-10-31T15:12:00;18.90;99.90
33715;DHT22;20043;50.998;4.754;2022-10-31T15:14:29;19.10;99.90
33715;DHT22;20043;50.998;4.754;2022-10-31T15:16:58;19.00;99.90
33715;DHT22;20043;50.998;4.754;2022-10-31T15:19:30;18.80;99.90
33715;DHT22;20043;50.998;4.754;2022-10-31T15:21:57;19.10;99.90
33715;DHT22;20043;50.998;4.754;2022-10-31T15:24:27;19.00;99.90
33715;DHT22;20043;50.998;4.754;2022-10-31T15:26:55;19.00;99.90
33715;DHT22;20043;50.998;4.754;2022-10-31T15:29:23;19.00;99.90
33715;DHT22;20043;50.998;4.754;2022-10-31T15:32:25;19.00;99.90
33715;DHT22;20043;50.998;4.754;2022-10-31T15:34:52;18.90;99.90
33715;DHT22;20043;50.998;4.754;2022-10-31T15:37:23;18.70;99.90
33715;DHT22;20043;50.998;4.754;2022-10-31T15:39:50;18.80;99.90
33715;DHT22;20043;50.998;4.754;2022-10-31T15:42:20;18.80;99.90
33715;DHT22;20043;50.998;4.754;2022-10-31T15:45:05;18.70;99.90
33715;DHT22;20043;50.998;4.754;2022-10-31T15:47:32;18.50;99.90
33715;DHT22;20043;50.998;4.754;2022-10-31T15:50:00;18.60;99.90
33715;DHT22;20043;50.998;4.754;2022-10-31T15:54:57;18.50;99.90
33715;DHT22;20043;50.998;4.754;2022-10-31T15:57:24;18.20;99.90
33715;DHT22;20043;50.998;4.754;2022-10-31T15:59:51;18.30;99.90
33715;DHT22;20043;50.998;4.754;2022-10-31T16:02:21;18.30;99.90
33715;DHT22;20043;50.998;4.754;2022-10-31T16:04:58;18.10;99.90
33715;DHT22;20043;50.998;4.754;2022-10-31T16:07:24;17.80;99.90
33715;DHT22;20043;50.998;4.754;2022-10-31T16:09:59;17.80;99.90
33715;DHT22;20043;50.998;4.754;2022-10-31T16:12:35;17.90;99.90
33715;DHT22;20043;50.998;4.754;2022-10-31T16:15:02;17.80;99.90
33715;DHT22;20043;50.998;4.754;2022-10-31T16:17:28;17.70;99.90
33715;DHT22;20043;50.998;4.754;2022-10-31T16:20:00;17.80;99.90
33715;DHT22;20043;50.998;4.754;2022-10-31T16:22:36;18.00;99.90
33715;DHT22;20043;50.998;4.754;2022-10-31T16:25:13;18.00;99.90
33715;DHT22;20043;50.998;4.754;2022-10-31T16:27:46;17.80;99.90
33715;DHT22;20043;50.998;4.754;2022-10-31T16:32:58;17.80;99.90
33715;DHT22;20043;50.998;4.754;2022-10-31T16:35:31;17.70;99.90
33715;DHT22;20043;50.998;4.754;2022-10-31T16:37:57;17.60;99.90
33715;DHT22;20043;50.998;4.754;2022-10-31T16:40:23;17.70;99.90
33715;DHT22;20043;50.998;4.754;2022-10-31T16:42:49;17.60;99.90
33715;DHT22;20043;50.998;4.754;2022-10-31T16:45:26;17.70;99.90
33715;DHT22;20043;50.998;4.754;2022-10-31T16:47:53;17.90;99.90
33715;DHT22;20043;50.998;4.754;2022-10-31T16:50:25;17.90;99.90
33715;DHT22;20043;50.998;4.754;2022-10-31T16:52:52;17.90;99.90
33715;DHT22;20043;50.998;4.754;2022-10-31T16:55:19;17.80;99.90
33715;DHT22;20043;50.998;4.754;2022-10-31T16:57:48;17.70;99.90
33715;DHT22;20043;50.998;4.754;2022-10-31T17:00:17;17.60;99.90
33715;DHT22;20043;50.998;4.754;2022-10-31T17:02:45;17.60;99.90
33715;DHT22;20043;50.998;4.754;2022-10-31T17:05:13;17.30;99.90
33715;DHT22;20043;50.998;4.754;2022-10-31T17:07:39;17.00;99.90
33715;DHT22;20043;50.998;4.754;2022-10-31T17:10:06;17.00;99.90
33715;DHT22;20043;50.998;4.754;2022-10-31T17:12:32;16.90;99.90
33715;DHT22;20043;50.998;4.754;2022-10-31T17:14:57;16.90;99.90
33715;DHT22;20043;50.998;4.754;2022-10-31T17:17:23;17.00;99.90
33715;DHT22;20043;50.998;4.754;2022-10-31T17:19:49;17.00;99.90
33715;DHT22;20043;50.998;4.754;2022-10-31T17:22:14;17.10;99.90
33715;DHT22;20043;50.998;4.754;2022-10-31T17:24:40;17.20;99.90
33715;DHT22;20043;50.998;4.754;2022-10-31T17:27:06;17.20;99.90
33715;DHT22;20043;50.998;4.754;2022-10-31T17:29:31;17.10;99.90
33715;DHT22;20043;50.998;4.754;2022-10-31T17:31:57;17.20;99.90
33715;DHT22;20043;50.998;4.754;2022-10-31T17:34:24;17.30;99.90
33715;DHT22;20043;50.998;4.754;2022-10-31T17:36:51;17.40;99.90
33715;DHT22;20043;50.998;4.754;2022-10-31T17:39:20;17.50;99.90
33715;DHT22;20043;50.998;4.754;2022-10-31T17:41:49;17.40;99.90
33715;DHT22;20043;50.998;4.754;2022-10-31T17:44:16;17.30;99.90
33715;DHT22;20043;50.998;4.754;2022-10-31T17:46:41;17.30;99.90
33715;DHT22;20043;50.998;4.754;2022-10-31T17:49:07;17.30;99.90
33715;DHT22;20043;50.998;4.754;2022-10-31T17:51:34;17.30;99.90
33715;DHT22;20043;50.998;4.754;2022-10-31T17:53:59;17.40;99.90